createdAt,value
2018-12-16T00:00:40.054Z,1018.76
2018-12-16T00:01:40.059Z,1018.75
2018-12-16T00:02:40.055Z,1018.76
2018-12-16T00:03:40.038Z,1018.70
2018-12-16T00:04:40.019Z,1018.75
2018-12-16T00:05:40.010Z,1018.71
2018-12-16T00:06:39.990Z,1018.70
2018-12-16T00:07:40.000Z,1018.70
2018-12-16T00:08:39.970Z,1018.74
2018-12-16T00:09:39.958Z,1018.70
2018-12-16T00:10:39.946Z,1018.72
2018-12-16T00:11:39.936Z,1018.69
2018-12-16T00:12:39.945Z,1018.66
2018-12-16T00:13:39.917Z,1018.64
2018-12-16T00:14:39.908Z,1018.59
2018-12-16T00:15:39.904Z,1018.63
2018-12-16T00:16:39.882Z,1018.63
2018-12-16T00:17:39.890Z,1018.57
2018-12-16T00:18:39.857Z,1018.54
2018-12-16T00:19:39.844Z,1018.51
2018-12-16T00:20:39.829Z,1018.51
2018-12-16T00:21:39.823Z,1018.51
2018-12-16T00:22:39.837Z,1018.52
2018-12-16T00:23:39.802Z,1018.54
2018-12-16T00:24:39.797Z,1018.57
2018-12-16T00:25:39.806Z,1018.55
2018-12-16T00:26:39.770Z,1018.58
2018-12-16T00:27:39.779Z,1018.68
2018-12-16T00:28:39.747Z,1018.62
2018-12-16T00:29:39.730Z,1018.62
2018-12-16T00:30:39.727Z,1018.61
2018-12-16T00:31:39.716Z,1018.58
2018-12-16T00:32:39.713Z,1018.62
2018-12-16T00:33:39.694Z,1018.56
2018-12-16T00:34:39.678Z,1018.54
2018-12-16T00:35:39.675Z,1018.53
2018-12-16T00:36:39.653Z,1018.53
2018-12-16T00:37:39.669Z,1018.50
2018-12-16T00:38:39.670Z,1018.52
2018-12-16T00:39:39.629Z,1018.47
2018-12-16T00:40:39.632Z,1018.50
2018-12-16T00:41:39.607Z,1018.50
2018-12-16T00:42:39.617Z,1018.46
2018-12-16T00:43:39.584Z,1018.45
2018-12-16T00:44:39.582Z,1018.44
2018-12-16T00:45:39.558Z,1018.47
2018-12-16T00:46:39.551Z,1018.42
2018-12-16T00:47:39.579Z,1018.39
2018-12-16T00:48:39.524Z,1018.37
2018-12-16T00:49:39.516Z,1018.39
2018-12-16T00:50:39.551Z,1018.34
2018-12-16T00:51:39.495Z,1018.31
2018-12-16T00:52:39.480Z,1018.32
2018-12-16T00:53:39.489Z,1018.28
2018-12-16T00:54:39.453Z,1018.30
2018-12-16T00:55:39.447Z,1018.26
2018-12-16T00:56:39.453Z,1018.25
2018-12-16T00:57:39.450Z,1018.22
2018-12-16T00:58:39.434Z,1018.23
2018-12-16T00:59:39.398Z,1018.21
2018-12-16T01:00:39.415Z,1018.23
2018-12-16T01:01:39.435Z,1018.20
2018-12-16T01:02:39.379Z,1018.24
2018-12-16T01:03:40.365Z,1018.23
2018-12-16T01:04:39.360Z,1018.11
2018-12-16T01:05:39.337Z,1018.21
2018-12-16T01:06:39.332Z,1018.17
2018-12-16T01:07:39.315Z,1018.15
2018-12-16T01:08:39.332Z,1018.18
2018-12-16T01:09:39.299Z,1018.14
2018-12-16T01:10:39.334Z,1018.16
2018-12-16T01:11:39.268Z,1018.10
2018-12-16T01:12:39.270Z,1018.07
2018-12-16T01:13:39.272Z,1018.08
2018-12-16T01:14:39.290Z,1018.06
2018-12-16T01:15:39.239Z,1018.07
2018-12-16T01:16:39.233Z,1018.06
2018-12-16T01:17:39.206Z,1018.08
2018-12-16T01:18:39.229Z,1018.02
2018-12-16T01:19:39.193Z,1018.03
2018-12-16T01:20:39.173Z,1017.97
2018-12-16T01:21:39.176Z,1018.04
2018-12-16T01:22:43.360Z,1017.99
2018-12-16T01:23:39.179Z,1017.98
2018-12-16T01:24:39.165Z,1017.96
2018-12-16T01:25:39.120Z,1017.94
2018-12-16T01:26:39.113Z,1017.95
2018-12-16T01:27:39.113Z,1017.99
2018-12-16T01:28:39.147Z,1017.89
2018-12-16T01:29:39.077Z,1017.95
2018-12-16T01:30:39.060Z,1017.87
2018-12-16T01:31:39.053Z,1017.83
2018-12-16T01:32:39.051Z,1017.85
2018-12-16T01:33:39.058Z,1017.86
2018-12-16T01:34:39.043Z,1017.81
2018-12-16T01:35:39.008Z,1017.79
2018-12-16T01:36:39.000Z,1017.81
2018-12-16T01:37:38.990Z,1017.78
2018-12-16T01:38:38.980Z,1017.82
2018-12-16T01:39:38.984Z,1017.76
2018-12-16T01:40:38.951Z,1017.84
2018-12-16T01:41:38.945Z,1017.78
2018-12-16T01:42:38.922Z,1017.77
2018-12-16T01:43:38.920Z,1017.75
2018-12-16T01:44:38.920Z,1017.73
2018-12-16T01:45:38.887Z,1017.74
2018-12-16T01:46:38.912Z,1017.70
2018-12-16T01:47:38.871Z,1017.67
2018-12-16T01:48:38.855Z,1017.61
2018-12-16T01:49:38.877Z,1017.59
2018-12-16T01:50:38.848Z,1017.62
2018-12-16T01:51:38.831Z,1017.56
2018-12-16T01:52:38.822Z,1017.52
2018-12-16T01:53:38.800Z,1017.48
2018-12-16T01:54:38.805Z,1017.48
2018-12-16T01:55:38.776Z,1017.48
2018-12-16T01:56:38.776Z,1017.47
2018-12-16T01:57:38.765Z,1017.41
2018-12-16T01:58:38.753Z,1017.48
2018-12-16T01:59:38.754Z,1017.41
2018-12-16T02:00:38.723Z,1017.39
2018-12-16T02:01:38.715Z,1017.44
2018-12-16T02:02:38.698Z,1017.37
2018-12-16T02:03:38.695Z,1017.42
2018-12-16T02:04:38.705Z,1017.38
2018-12-16T02:05:38.668Z,1017.40
2018-12-16T02:06:38.658Z,1017.31
2018-12-16T02:07:38.651Z,1017.29
2018-12-16T02:08:38.637Z,1017.21
2018-12-16T02:09:38.645Z,1017.22
2018-12-16T02:10:38.652Z,1017.17
2018-12-16T02:11:38.602Z,1017.15
2018-12-16T02:12:38.589Z,1017.19
2018-12-16T02:13:38.580Z,1017.16
2018-12-16T02:14:38.586Z,1017.16
2018-12-16T02:15:38.560Z,1017.15
2018-12-16T02:16:38.557Z,1017.19
2018-12-16T02:17:38.535Z,1017.16
2018-12-16T02:18:38.528Z,1017.16
2018-12-16T02:19:38.532Z,1017.18
2018-12-16T02:20:38.502Z,1017.12
2018-12-16T02:21:38.493Z,1017.10
2018-12-16T02:22:38.487Z,1017.07
2018-12-16T02:23:38.467Z,1017.09
2018-12-16T02:24:38.494Z,1017.11
2018-12-16T02:25:38.447Z,1017.06
2018-12-16T02:26:38.441Z,1017.05
2018-12-16T02:27:38.420Z,1016.98
2018-12-16T02:28:38.413Z,1016.99
2018-12-16T02:29:38.411Z,1017.00
2018-12-16T02:30:38.420Z,1017.00
2018-12-16T02:31:38.383Z,1017.02
2018-12-16T02:32:38.372Z,1017.00
2018-12-16T02:33:38.369Z,1016.98
2018-12-16T02:34:38.351Z,1016.98
2018-12-16T02:35:38.363Z,1016.98
2018-12-16T02:36:38.329Z,1016.95
2018-12-16T02:37:38.314Z,1016.93
2018-12-16T02:38:38.301Z,1016.89
2018-12-16T02:39:38.290Z,1016.87
2018-12-16T02:40:38.301Z,1016.86
2018-12-16T02:41:38.274Z,1016.89
2018-12-16T02:42:38.284Z,1016.87
2018-12-16T02:43:38.245Z,1016.90
2018-12-16T02:44:38.245Z,1016.86
2018-12-16T02:45:38.252Z,1016.88
2018-12-16T02:46:38.214Z,1016.94
2018-12-16T02:47:38.202Z,1016.88
2018-12-16T02:48:38.235Z,1016.88
2018-12-16T02:49:38.184Z,1016.89
2018-12-16T02:50:38.191Z,1016.90
2018-12-16T02:51:38.158Z,1016.88
2018-12-16T02:52:38.165Z,1016.82
2018-12-16T02:53:38.170Z,1016.89
2018-12-16T02:54:38.121Z,1016.88
2018-12-16T02:55:38.133Z,1016.88
2018-12-16T02:56:38.102Z,1016.95
2018-12-16T02:57:38.095Z,1016.91
2018-12-16T02:58:38.084Z,1016.91
2018-12-16T02:59:38.074Z,1016.90
2018-12-16T03:00:38.075Z,1016.86
2018-12-16T03:01:38.048Z,1016.83
2018-12-16T03:02:38.049Z,1016.86
2018-12-16T03:03:38.029Z,1016.81
2018-12-16T03:04:38.035Z,1016.82
2018-12-16T03:05:38.042Z,1016.83
2018-12-16T03:06:37.995Z,1016.82
2018-12-16T03:07:37.982Z,1016.76
2018-12-16T03:08:37.972Z,1016.66
2018-12-16T03:09:37.958Z,1016.69
2018-12-16T03:10:37.974Z,1016.68
2018-12-16T03:11:37.948Z,1016.68
2018-12-16T03:12:37.940Z,1016.65
2018-12-16T03:13:37.936Z,1016.70
2018-12-16T03:14:37.916Z,1016.65
2018-12-16T03:15:37.913Z,1016.70
2018-12-16T03:16:37.884Z,1016.67
2018-12-16T03:17:37.879Z,1016.61
2018-12-16T03:18:37.860Z,1016.59
2018-12-16T03:19:37.850Z,1016.56
2018-12-16T03:20:37.879Z,1016.53
2018-12-16T03:21:37.829Z,1016.52
2018-12-16T03:22:37.816Z,1016.51
2018-12-16T03:23:37.806Z,1016.53
2018-12-16T03:24:37.795Z,1016.51
2018-12-16T03:25:37.805Z,1016.46
2018-12-16T03:26:37.770Z,1016.50
2018-12-16T03:27:37.760Z,1016.51
2018-12-16T03:28:37.751Z,1016.51
2018-12-16T03:29:37.738Z,1016.48
2018-12-16T03:30:37.766Z,1016.49
2018-12-16T03:31:37.734Z,1016.51
2018-12-16T03:32:37.707Z,1016.50
2018-12-16T03:33:37.737Z,1016.46
2018-12-16T03:34:37.690Z,1016.45
2018-12-16T03:35:37.700Z,1016.42
2018-12-16T03:36:37.662Z,1016.41
2018-12-16T03:37:37.647Z,1016.38
2018-12-16T03:38:37.644Z,1016.37
2018-12-16T03:39:37.628Z,1016.32
2018-12-16T03:40:37.650Z,1016.36
2018-12-16T03:41:37.607Z,1016.35
2018-12-16T03:42:37.611Z,1016.34
2018-12-16T03:43:37.585Z,1016.33
2018-12-16T03:44:37.572Z,1016.34
2018-12-16T03:45:37.594Z,1016.30
2018-12-16T03:46:37.557Z,1016.32
2018-12-16T03:47:37.548Z,1016.28
2018-12-16T03:48:37.534Z,1016.34
2018-12-16T03:49:37.540Z,1016.30
2018-12-16T03:50:37.507Z,1016.31
2018-12-16T03:51:37.528Z,1016.30
2018-12-16T03:52:37.487Z,1016.28
2018-12-16T03:53:37.474Z,1016.23
2018-12-16T03:54:37.479Z,1016.27
2018-12-16T03:55:37.457Z,1016.25
2018-12-16T03:56:37.459Z,1016.27
2018-12-16T03:57:37.428Z,1016.30
2018-12-16T03:58:37.419Z,1016.24
2018-12-16T03:59:37.415Z,1016.25
2018-12-16T04:00:37.397Z,1016.27
2018-12-16T04:01:37.513Z,1016.26
2018-12-16T04:02:37.375Z,1016.25
2018-12-16T04:03:37.366Z,1016.26
2018-12-16T04:04:37.348Z,1016.23
2018-12-16T04:05:37.349Z,1016.26
2018-12-16T04:06:37.379Z,1016.20
2018-12-16T04:07:37.322Z,1016.19
2018-12-16T04:08:37.329Z,1016.28
2018-12-16T04:09:37.301Z,1016.21
2018-12-16T04:10:37.288Z,1016.20
2018-12-16T04:11:37.299Z,1016.21
2018-12-16T04:12:37.261Z,1016.13
2018-12-16T04:13:37.267Z,1016.11
2018-12-16T04:14:37.239Z,1016.08
2018-12-16T04:15:37.242Z,1016.11
2018-12-16T04:16:37.244Z,1016.07
2018-12-16T04:17:37.208Z,1016.05
2018-12-16T04:18:37.228Z,1016.04
2018-12-16T04:19:37.189Z,1015.98
2018-12-16T04:20:37.179Z,1015.99
2018-12-16T04:21:37.183Z,1015.90
2018-12-16T04:22:37.214Z,1015.95
2018-12-16T04:23:37.146Z,1015.92
2018-12-16T04:24:37.136Z,1015.93
2018-12-16T04:25:37.121Z,1015.89
2018-12-16T04:26:37.133Z,1015.86
2018-12-16T04:27:37.099Z,1015.84
2018-12-16T04:28:37.094Z,1015.86
2018-12-16T04:29:37.074Z,1015.79
2018-12-16T04:30:37.072Z,1015.78
2018-12-16T04:31:37.075Z,1015.81
2018-12-16T04:32:37.058Z,1015.73
2018-12-16T04:33:37.039Z,1015.69
2018-12-16T04:34:37.019Z,1015.60
2018-12-16T04:35:37.015Z,1015.65
2018-12-16T04:36:37.017Z,1015.61
2018-12-16T04:37:36.989Z,1015.63
2018-12-16T04:38:36.981Z,1015.61
2018-12-16T04:39:36.978Z,1015.61
2018-12-16T04:40:36.960Z,1015.64
2018-12-16T04:41:36.966Z,1015.61
2018-12-16T04:42:36.934Z,1015.61
2018-12-16T04:43:36.926Z,1015.56
2018-12-16T04:44:36.919Z,1015.57
2018-12-16T04:45:36.903Z,1015.53
2018-12-16T04:46:36.912Z,1015.52
2018-12-16T04:47:36.883Z,1015.53
2018-12-16T04:48:36.869Z,1015.51
2018-12-16T04:49:36.853Z,1015.53
2018-12-16T04:50:36.846Z,1015.50
2018-12-16T04:51:36.854Z,1015.47
2018-12-16T04:52:36.823Z,1015.44
2018-12-16T04:53:37.176Z,1015.39
2018-12-16T04:54:36.813Z,1015.40
2018-12-16T04:55:36.787Z,1015.40
2018-12-16T04:56:36.814Z,1015.46
2018-12-16T04:57:36.787Z,1015.43
2018-12-16T04:58:36.756Z,1015.44
2018-12-16T04:59:36.740Z,1015.42
2018-12-16T05:00:36.738Z,1015.38
2018-12-16T05:01:36.749Z,1015.42
2018-12-16T05:02:36.727Z,1015.44
2018-12-16T05:03:36.702Z,1015.41
2018-12-16T05:04:36.690Z,1015.44
2018-12-16T05:05:36.702Z,1015.42
2018-12-16T05:06:36.674Z,1015.40
2018-12-16T05:07:36.686Z,1015.39
2018-12-16T05:08:36.656Z,1015.37
2018-12-16T05:09:36.640Z,1015.34
2018-12-16T05:10:36.623Z,1015.36
2018-12-16T05:11:36.858Z,1015.30
2018-12-16T05:12:36.619Z,1015.34
2018-12-16T05:13:36.597Z,1015.33
2018-12-16T05:14:36.583Z,1015.30
2018-12-16T05:15:36.573Z,1015.25
2018-12-16T05:16:36.564Z,1015.27
2018-12-16T05:17:36.601Z,1015.24
2018-12-16T05:18:36.533Z,1015.23
2018-12-16T05:19:36.531Z,1015.17
2018-12-16T05:20:36.511Z,1015.16
2018-12-16T05:21:36.505Z,1015.09
2018-12-16T05:22:36.487Z,1015.10
2018-12-16T05:23:41.888Z,1015.09
2018-12-16T05:24:37.470Z,1015.07
2018-12-16T05:25:36.462Z,1015.04
2018-12-16T05:26:36.443Z,1015.00
2018-12-16T05:27:36.463Z,1014.97
2018-12-16T05:28:36.426Z,1014.96
2018-12-16T05:29:36.418Z,1014.85
2018-12-16T05:30:36.407Z,1014.93
2018-12-16T05:31:36.387Z,1014.83
2018-12-16T05:32:36.399Z,1014.89
2018-12-16T05:33:36.367Z,1014.85
2018-12-16T05:34:36.355Z,1014.90
2018-12-16T05:35:36.348Z,1014.81
2018-12-16T05:36:36.340Z,1014.82
2018-12-16T05:37:36.345Z,1014.77
2018-12-16T05:38:36.314Z,1014.83
2018-12-16T05:39:36.305Z,1014.79
2018-12-16T05:40:36.293Z,1014.74
2018-12-16T05:41:36.276Z,1014.71
2018-12-16T05:42:36.290Z,1014.69
2018-12-16T05:43:36.253Z,1014.67
2018-12-16T05:44:36.269Z,1014.68
2018-12-16T05:45:36.243Z,1014.66
2018-12-16T05:46:36.227Z,1014.68
2018-12-16T05:47:36.216Z,1014.60
2018-12-16T05:48:36.204Z,1014.61
2018-12-16T05:49:36.212Z,1014.57
2018-12-16T05:50:36.180Z,1014.55
2018-12-16T05:51:36.170Z,1014.56
2018-12-16T05:52:36.160Z,1014.56
2018-12-16T05:53:36.167Z,1014.56
2018-12-16T05:54:36.139Z,1014.53
2018-12-16T05:55:36.129Z,1014.61
2018-12-16T05:56:36.126Z,1014.56
2018-12-16T05:57:36.103Z,1014.58
2018-12-16T05:58:36.108Z,1014.58
2018-12-16T05:59:36.094Z,1014.55
2018-12-16T06:00:36.076Z,1014.57
2018-12-16T06:01:36.058Z,1014.59
2018-12-16T06:02:36.050Z,1014.59
2018-12-16T06:03:36.064Z,1014.60
2018-12-16T06:04:36.026Z,1014.60
2018-12-16T06:05:36.025Z,1014.59
2018-12-16T06:06:36.012Z,1014.61
2018-12-16T06:07:35.996Z,1014.61
2018-12-16T06:08:36.002Z,1014.57
2018-12-16T06:09:35.969Z,1014.54
2018-12-16T06:10:35.961Z,1014.45
2018-12-16T06:11:35.949Z,1014.49
2018-12-16T06:12:35.938Z,1014.46
2018-12-16T06:13:35.938Z,1014.47
2018-12-16T06:14:35.913Z,1014.49
2018-12-16T06:15:35.905Z,1014.47
2018-12-16T06:16:35.893Z,1014.51
2018-12-16T06:17:35.883Z,1014.49
2018-12-16T06:18:36.095Z,1014.38
2018-12-16T06:19:35.868Z,1014.42
2018-12-16T06:20:35.849Z,1014.39
2018-12-16T06:21:35.856Z,1014.42
2018-12-16T06:22:35.825Z,1014.39
2018-12-16T06:23:35.849Z,1014.34
2018-12-16T06:24:35.848Z,1014.35
2018-12-16T06:25:35.804Z,1014.37
2018-12-16T06:26:35.784Z,1014.33
2018-12-16T06:27:35.772Z,1014.33
2018-12-16T06:28:35.781Z,1014.27
2018-12-16T06:29:35.749Z,1014.32
2018-12-16T06:30:35.741Z,1014.26
2018-12-16T06:31:35.739Z,1014.33
2018-12-16T06:32:35.750Z,1014.26
2018-12-16T06:33:35.723Z,1014.33
2018-12-16T06:34:35.692Z,1014.29
2018-12-16T06:35:35.678Z,1014.31
2018-12-16T06:36:35.671Z,1014.28
2018-12-16T06:37:35.663Z,1014.29
2018-12-16T06:38:35.666Z,1014.32
2018-12-16T06:39:35.641Z,1014.26
2018-12-16T06:40:35.627Z,1014.28
2018-12-16T06:41:35.616Z,1014.29
2018-12-16T06:42:35.605Z,1014.26
2018-12-16T06:43:35.613Z,1014.22
2018-12-16T06:44:35.580Z,1014.24
2018-12-16T06:45:35.572Z,1014.30
2018-12-16T06:46:35.561Z,1014.26
2018-12-16T06:47:35.551Z,1014.20
2018-12-16T06:48:35.569Z,1014.19
2018-12-16T06:49:35.531Z,1014.15
2018-12-16T06:50:35.517Z,1014.11
2018-12-16T06:51:35.501Z,1014.08
2018-12-16T06:52:35.491Z,1014.09
2018-12-16T06:53:35.503Z,1014.08
2018-12-16T06:54:35.476Z,1014.04
2018-12-16T06:55:35.464Z,1014.02
2018-12-16T06:56:35.449Z,1014.01
2018-12-16T06:57:35.442Z,1014.00
2018-12-16T06:58:35.459Z,1013.93
2018-12-16T06:59:35.414Z,1013.91
2018-12-16T07:00:35.404Z,1013.90
2018-12-16T07:01:35.400Z,1013.95
2018-12-16T07:02:35.389Z,1013.89
2018-12-16T07:03:35.408Z,1013.91
2018-12-16T07:04:35.360Z,1013.86
2018-12-16T07:05:35.355Z,1013.85
2018-12-16T07:06:35.345Z,1013.83
2018-12-16T07:07:35.336Z,1013.89
2018-12-16T07:08:35.319Z,1013.84
2018-12-16T07:09:35.326Z,1013.81
2018-12-16T07:10:35.292Z,1013.84
2018-12-16T07:11:35.295Z,1013.86
2018-12-16T07:12:35.277Z,1013.88
2018-12-16T07:13:35.288Z,1013.91
2018-12-16T07:14:35.275Z,1013.90
2018-12-16T07:15:35.241Z,1013.91
2018-12-16T07:16:35.231Z,1013.90
2018-12-16T07:17:35.229Z,1013.97
2018-12-16T07:18:35.216Z,1013.99
2018-12-16T07:19:35.230Z,1014.00
2018-12-16T07:20:35.209Z,1014.09
2018-12-16T07:21:35.194Z,1014.08
2018-12-16T07:22:35.187Z,1014.17
2018-12-16T07:23:35.181Z,1014.22
2018-12-16T07:24:35.181Z,1014.27
2018-12-16T07:25:35.151Z,1014.27
2018-12-16T07:26:35.148Z,1014.37
2018-12-16T07:27:35.126Z,1014.34
2018-12-16T07:28:35.101Z,1014.33
2018-12-16T07:29:35.106Z,1014.30
2018-12-16T07:30:35.098Z,1014.27
2018-12-16T07:31:35.082Z,1014.26
2018-12-16T07:32:35.053Z,1014.19
2018-12-16T07:33:35.044Z,1014.20
2018-12-16T07:34:35.053Z,1014.15
2018-12-16T07:35:35.022Z,1014.16
2018-12-16T07:36:35.035Z,1014.17
2018-12-16T07:37:34.997Z,1014.13
2018-12-16T07:38:35.002Z,1014.15
2018-12-16T07:39:35.028Z,1014.18
2018-12-16T07:40:35.001Z,1014.18
2018-12-16T07:41:34.982Z,1014.16
2018-12-16T07:42:34.944Z,1014.16
2018-12-16T07:43:34.938Z,1014.13
2018-12-16T07:44:34.944Z,1014.17
2018-12-16T07:45:34.911Z,1014.16
2018-12-16T07:46:34.912Z,1014.17
2018-12-16T07:47:34.889Z,1014.19
2018-12-16T07:48:34.920Z,1014.18
2018-12-16T07:49:34.932Z,1014.17
2018-12-16T07:50:34.901Z,1014.15
2018-12-16T07:51:34.850Z,1014.22
2018-12-16T07:52:34.913Z,1014.17
2018-12-16T07:53:34.827Z,1014.12
2018-12-16T07:54:34.818Z,1014.12
2018-12-16T07:55:34.816Z,1014.12
2018-12-16T07:56:35.104Z,1014.09
2018-12-16T07:57:34.798Z,1014.15
2018-12-16T07:58:34.775Z,1014.10
2018-12-16T07:59:34.775Z,1014.14
2018-12-16T08:00:34.764Z,1014.11
2018-12-16T08:01:34.762Z,1014.05
2018-12-16T08:02:34.736Z,1014.05
2018-12-16T08:03:34.721Z,1013.99
2018-12-16T08:04:34.707Z,1014.00
2018-12-16T08:05:34.729Z,1013.96
2018-12-16T08:06:34.686Z,1013.96
2018-12-16T08:07:34.668Z,1013.92
2018-12-16T08:08:34.660Z,1013.96
2018-12-16T08:09:34.648Z,1013.90
2018-12-16T08:10:34.660Z,1013.95
2018-12-16T08:11:34.624Z,1013.85
2018-12-16T08:12:34.628Z,1013.89
2018-12-16T08:13:34.623Z,1013.90
2018-12-16T08:14:34.590Z,1013.86
2018-12-16T08:15:34.578Z,1013.90
2018-12-16T08:16:34.563Z,1013.77
2018-12-16T08:17:34.556Z,1013.82
2018-12-16T08:18:34.560Z,1013.86
2018-12-16T08:19:34.544Z,1013.84
2018-12-16T08:20:34.546Z,1013.86
2018-12-16T08:21:34.511Z,1013.84
2018-12-16T08:22:34.523Z,1013.82
2018-12-16T08:23:35.490Z,1013.82
2018-12-16T08:24:34.479Z,1013.78
2018-12-16T08:25:34.492Z,1013.85
2018-12-16T08:26:34.457Z,1013.75
2018-12-16T08:27:34.450Z,1013.76
2018-12-16T08:28:34.458Z,1013.75
2018-12-16T08:29:34.424Z,1013.76
2018-12-16T08:30:34.430Z,1013.77
2018-12-16T08:31:34.399Z,1013.71
2018-12-16T08:32:34.393Z,1013.72
2018-12-16T08:33:34.381Z,1013.75
2018-12-16T08:34:34.366Z,1013.79
2018-12-16T08:35:34.379Z,1013.75
2018-12-16T08:36:34.344Z,1013.75
2018-12-16T08:37:34.333Z,1013.76
2018-12-16T08:38:34.334Z,1013.75
2018-12-16T08:39:34.314Z,1013.73
2018-12-16T08:40:34.342Z,1013.75
2018-12-16T08:41:34.293Z,1013.83
2018-12-16T08:42:34.280Z,1013.81
2018-12-16T08:43:34.272Z,1013.87
2018-12-16T08:44:34.264Z,1013.78
2018-12-16T08:45:34.246Z,1013.81
2018-12-16T08:46:34.257Z,1013.80
2018-12-16T08:47:34.230Z,1013.80
2018-12-16T08:48:34.211Z,1013.84
2018-12-16T08:49:34.202Z,1013.86
2018-12-16T08:50:34.193Z,1013.85
2018-12-16T08:51:34.200Z,1013.82
2018-12-16T08:52:34.173Z,1013.82
2018-12-16T08:53:34.161Z,1013.81
2018-12-16T08:54:34.155Z,1013.82
2018-12-16T08:55:34.166Z,1013.87
2018-12-16T08:56:34.144Z,1013.81
2018-12-16T08:57:34.113Z,1013.82
2018-12-16T08:58:34.105Z,1013.85
2018-12-16T08:59:34.092Z,1013.80
2018-12-16T09:00:34.083Z,1013.86
2018-12-16T09:01:34.118Z,1013.84
2018-12-16T09:02:34.096Z,1013.83
2018-12-16T09:03:34.045Z,1013.79
2018-12-16T09:04:34.039Z,1013.81
2018-12-16T09:05:34.031Z,1013.74
2018-12-16T09:06:35.876Z,1013.75
2018-12-16T09:07:37.303Z,1013.69
2018-12-16T09:08:33.987Z,1013.73
2018-12-16T09:09:33.980Z,1013.76
2018-12-16T09:10:34.500Z,1013.69
2018-12-16T09:11:33.979Z,1013.72
2018-12-16T09:12:33.952Z,1013.74
2018-12-16T09:13:33.941Z,1013.75
2018-12-16T09:14:33.923Z,1013.69
2018-12-16T09:15:33.918Z,1013.67
2018-12-16T09:16:33.928Z,1013.63
2018-12-16T09:17:33.894Z,1013.62
2018-12-16T09:18:33.880Z,1013.67
2018-12-16T09:19:33.870Z,1013.55
2018-12-16T09:20:33.861Z,1013.58
2018-12-16T09:21:33.873Z,1013.58
2018-12-16T09:22:33.843Z,1013.55
2018-12-16T09:23:33.861Z,1013.53
2018-12-16T09:24:37.248Z,1013.49
2018-12-16T09:25:33.805Z,1013.51
2018-12-16T09:26:33.810Z,1013.45
2018-12-16T09:27:33.790Z,1013.40
2018-12-16T09:28:33.772Z,1013.40
2018-12-16T09:29:33.763Z,1013.45
2018-12-16T09:30:33.750Z,1013.39
2018-12-16T09:31:33.757Z,1013.41
2018-12-16T09:32:33.731Z,1013.35
2018-12-16T09:33:33.713Z,1013.34
2018-12-16T09:34:33.719Z,1013.32
2018-12-16T09:35:33.695Z,1013.30
2018-12-16T09:36:33.711Z,1013.32
2018-12-16T09:37:33.673Z,1013.35
2018-12-16T09:38:33.658Z,1013.33
2018-12-16T09:39:33.653Z,1013.29
2018-12-16T09:40:33.641Z,1013.31
2018-12-16T09:41:33.645Z,1013.26
2018-12-16T09:42:34.125Z,1013.30
2018-12-16T09:43:33.603Z,1013.23
2018-12-16T09:44:33.592Z,1013.24
2018-12-16T09:45:33.585Z,1013.17
2018-12-16T09:46:33.592Z,1013.19
2018-12-16T09:47:33.567Z,1013.18
2018-12-16T09:48:33.549Z,1013.14
2018-12-16T09:49:33.535Z,1013.16
2018-12-16T09:50:33.530Z,1013.11
2018-12-16T09:51:33.561Z,1013.09
2018-12-16T09:52:33.506Z,1013.13
2018-12-16T09:53:33.531Z,1013.07
2018-12-16T09:54:33.496Z,1013.09
2018-12-16T09:55:33.488Z,1013.06
2018-12-16T09:56:33.463Z,1013.02
2018-12-16T09:57:33.467Z,1013.05
2018-12-16T09:58:33.436Z,1012.94
2018-12-16T09:59:33.425Z,1012.93
2018-12-16T10:00:33.423Z,1012.92
2018-12-16T10:01:33.411Z,1012.90
2018-12-16T10:02:33.427Z,1012.88
2018-12-16T10:03:33.383Z,1012.86
2018-12-16T10:04:33.394Z,1012.88
2018-12-16T10:05:33.421Z,1012.84
2018-12-16T10:06:33.421Z,1012.82
2018-12-16T10:07:33.379Z,1012.84
2018-12-16T10:08:33.326Z,1012.85
2018-12-16T10:09:33.326Z,1012.83
2018-12-16T10:10:33.298Z,1012.82
2018-12-16T10:11:33.292Z,1012.84
2018-12-16T10:12:33.298Z,1012.92
2018-12-16T10:13:33.271Z,1012.85
2018-12-16T10:14:33.268Z,1012.79
2018-12-16T10:15:33.258Z,1012.82
2018-12-16T10:16:33.235Z,1012.77
2018-12-16T10:17:33.248Z,1012.78
2018-12-16T10:18:33.227Z,1012.79
2018-12-16T10:19:33.202Z,1012.76
2018-12-16T10:20:33.199Z,1012.76
2018-12-16T10:21:33.181Z,1012.75
2018-12-16T10:22:33.190Z,1012.78
2018-12-16T10:23:33.162Z,1012.78
2018-12-16T10:24:33.147Z,1012.76
2018-12-16T10:25:33.137Z,1012.75
2018-12-16T10:26:33.130Z,1012.74
2018-12-16T10:27:33.136Z,1012.76
2018-12-16T10:28:33.325Z,1012.78
2018-12-16T10:29:33.094Z,1012.70
2018-12-16T10:30:33.082Z,1012.70
2018-12-16T10:31:33.083Z,1012.76
2018-12-16T10:32:33.100Z,1012.78
2018-12-16T10:33:33.047Z,1012.70
2018-12-16T10:34:33.042Z,1012.68
2018-12-16T10:35:33.042Z,1012.71
2018-12-16T10:36:33.016Z,1012.69
2018-12-16T10:37:33.030Z,1012.67
2018-12-16T10:38:32.993Z,1012.68
2018-12-16T10:39:32.981Z,1012.66
2018-12-16T10:40:32.975Z,1012.60
2018-12-16T10:41:32.960Z,1012.64
2018-12-16T10:42:32.969Z,1012.59
2018-12-16T10:43:32.949Z,1012.56
2018-12-16T10:44:32.926Z,1012.56
2018-12-16T10:45:32.975Z,1012.54
2018-12-16T10:46:32.908Z,1012.53
2018-12-16T10:47:32.916Z,1012.52
2018-12-16T10:48:32.891Z,1012.55
2018-12-16T10:49:32.878Z,1012.53
2018-12-16T10:50:32.858Z,1012.49
2018-12-16T10:51:32.857Z,1012.49
2018-12-16T10:52:33.003Z,1012.51
2018-12-16T10:53:32.828Z,1012.45
2018-12-16T10:54:32.826Z,1012.43
2018-12-16T10:55:32.815Z,1012.50
2018-12-16T10:56:32.801Z,1012.41
2018-12-16T10:57:32.812Z,1012.41
2018-12-16T10:58:32.772Z,1012.39
2018-12-16T10:59:32.775Z,1012.36
2018-12-16T11:00:32.748Z,1012.33
2018-12-16T11:01:32.745Z,1012.37
2018-12-16T11:02:32.747Z,1012.30
2018-12-16T11:03:32.746Z,1012.30
2018-12-16T11:04:32.704Z,1012.24
2018-12-16T11:05:32.703Z,1012.26
2018-12-16T11:06:32.688Z,1012.21
2018-12-16T11:07:32.680Z,1012.13
2018-12-16T11:08:32.689Z,1012.11
2018-12-16T11:09:32.659Z,1012.17
2018-12-16T11:10:32.667Z,1012.08
2018-12-16T11:11:32.634Z,1012.16
2018-12-16T11:12:32.623Z,1012.12
2018-12-16T11:13:32.670Z,1012.13
2018-12-16T11:14:32.607Z,1012.08
2018-12-16T11:15:32.589Z,1012.13
2018-12-16T11:16:32.577Z,1012.10
2018-12-16T11:17:32.564Z,1012.02
2018-12-16T11:18:32.578Z,1012.06
2018-12-16T11:19:32.560Z,1012.10
2018-12-16T11:20:32.526Z,1012.11
2018-12-16T11:21:32.558Z,1012.06
2018-12-16T11:22:32.508Z,1012.10
2018-12-16T11:23:32.516Z,1012.10
2018-12-16T11:24:32.519Z,1012.12
2018-12-16T11:25:32.477Z,1012.01
2018-12-16T11:26:32.468Z,1012.07
2018-12-16T11:27:32.455Z,1012.04
2018-12-16T11:28:32.478Z,1012.00
2018-12-16T11:29:32.439Z,1011.96
2018-12-16T11:30:32.421Z,1011.95
2018-12-16T11:31:32.406Z,1011.96
2018-12-16T11:32:32.397Z,1011.86
2018-12-16T11:33:32.408Z,1011.88
2018-12-16T11:34:32.375Z,1011.85
2018-12-16T11:35:32.366Z,1011.87
2018-12-16T11:36:32.371Z,1011.86
2018-12-16T11:37:32.350Z,1011.89
2018-12-16T11:38:32.364Z,1011.91
2018-12-16T11:39:32.340Z,1011.88
2018-12-16T11:40:32.329Z,1011.90
2018-12-16T11:41:32.299Z,1011.89
2018-12-16T11:42:32.290Z,1011.79
2018-12-16T11:43:32.294Z,1011.88
2018-12-16T11:44:32.274Z,1011.80
2018-12-16T11:45:32.262Z,1011.80
2018-12-16T11:46:32.252Z,1011.79
2018-12-16T11:47:32.241Z,1011.80
2018-12-16T11:48:32.244Z,1011.75
2018-12-16T11:49:32.207Z,1011.76
2018-12-16T11:50:32.204Z,1011.75
2018-12-16T11:51:32.350Z,1011.73
2018-12-16T11:52:32.189Z,1011.74
2018-12-16T11:53:32.210Z,1011.71
2018-12-16T11:54:32.150Z,1011.69
2018-12-16T11:55:32.227Z,1011.69
2018-12-16T11:56:32.137Z,1011.63
2018-12-16T11:57:32.349Z,1011.62
2018-12-16T11:58:32.142Z,1011.63
2018-12-16T11:59:32.563Z,1011.63
2018-12-16T12:00:32.093Z,1011.55
2018-12-16T12:01:32.101Z,1011.59
2018-12-16T12:02:32.955Z,1011.54
2018-12-16T12:03:32.051Z,1011.57
2018-12-16T12:04:32.073Z,1011.55
2018-12-16T12:05:32.030Z,1011.52